createdAt,value
2018-12-15T00:00:36.807Z,26.30
2018-12-15T00:03:06.708Z,28.37
2018-12-15T00:05:36.692Z,28.90
2018-12-15T00:08:06.560Z,25.30
2018-12-15T00:10:36.658Z,25.03
2018-12-15T00:13:06.653Z,27.43
2018-12-15T00:15:36.529Z,26.60
2018-12-15T00:18:07.476Z,26.77
2018-12-15T00:20:37.872Z,27.97
2018-12-15T00:23:08.259Z,24.80
2018-12-15T00:25:38.122Z,24.80
2018-12-15T00:28:07.997Z,24.67
2018-12-15T00:30:37.821Z,26.23
2018-12-15T00:33:07.715Z,27.10
2018-12-15T00:39:23.420Z,29.87
2018-12-15T00:42:18.059Z,31.17
2018-12-15T00:44:47.999Z,27.13
2018-12-15T00:47:17.893Z,27.20
2018-12-15T00:49:47.705Z,27.17
2018-12-15T00:52:18.048Z,28.73
2018-12-15T00:54:48.059Z,27.17
2018-12-15T00:57:17.903Z,28.10
2018-12-15T00:59:47.991Z,26.73
2018-12-15T01:02:17.995Z,30.23
2018-12-15T01:04:48.060Z,26.17
2018-12-15T01:07:17.893Z,30.57
2018-12-15T01:09:48.021Z,24.50
2018-12-15T01:12:18.706Z,28.33
2018-12-15T01:14:48.767Z,27.40
2018-12-15T01:17:20.710Z,29.77
2018-12-15T01:19:50.398Z,27.60
2018-12-15T01:22:20.428Z,26.60
2018-12-15T01:24:50.391Z,28.30
2018-12-15T01:27:20.143Z,26.37
2018-12-15T01:29:49.910Z,27.47
2018-12-15T01:32:19.650Z,26.67
2018-12-15T01:34:49.696Z,25.80
2018-12-15T01:37:19.832Z,27.57
2018-12-15T01:39:49.581Z,28.23
2018-12-15T01:42:19.683Z,27.23
2018-12-15T01:44:49.468Z,28.67
2018-12-15T01:47:19.237Z,28.53
2018-12-15T01:49:49.740Z,28.63
2018-12-15T01:52:19.498Z,27.73
2018-12-15T01:54:49.470Z,25.33
2018-12-15T01:57:19.563Z,25.03
2018-12-15T01:59:49.319Z,28.07
2018-12-15T02:02:19.089Z,28.37
2018-12-15T02:04:48.851Z,28.73
2018-12-15T02:07:18.645Z,25.73
2018-12-15T02:09:48.445Z,26.00
2018-12-15T02:12:18.219Z,28.83
2018-12-15T02:14:48.033Z,28.47
2018-12-15T02:17:17.975Z,30.13
2018-12-15T02:19:48.803Z,29.17
2018-12-15T02:22:19.007Z,29.77
2018-12-15T02:24:49.220Z,26.77
2018-12-15T02:27:19.060Z,29.03
2018-12-15T02:29:48.898Z,26.50
2018-12-15T02:32:18.715Z,27.47
2018-12-15T02:34:48.517Z,29.63
2018-12-15T02:37:18.283Z,27.90
2018-12-15T02:39:48.078Z,26.10
2018-12-15T02:42:18.208Z,30.37
2018-12-15T02:44:48.280Z,29.63
2018-12-15T02:47:18.077Z,29.47
2018-12-15T02:49:47.859Z,35.80
2018-12-15T02:52:17.736Z,28.67
2018-12-15T02:54:47.553Z,30.83
2018-12-15T02:57:17.620Z,31.13
2018-12-15T02:59:47.671Z,30.43
2018-12-15T03:02:17.718Z,30.43
2018-12-15T03:04:47.964Z,31.03
2018-12-15T03:07:18.575Z,29.73
2018-12-15T03:09:48.607Z,29.50
2018-12-15T03:12:18.689Z,34.40
2018-12-15T03:14:48.803Z,31.77
2018-12-15T03:21:21.947Z,32.63
2018-12-15T03:23:51.683Z,35.37
2018-12-15T03:26:21.517Z,33.13
2018-12-15T03:28:51.250Z,30.93
2018-12-15T03:31:21.308Z,31.63
2018-12-15T03:33:51.439Z,28.90
2018-12-15T03:36:21.232Z,31.40
2018-12-15T03:38:51.050Z,30.93
2018-12-15T03:41:20.821Z,29.27
2018-12-15T03:43:50.615Z,35.33
2018-12-15T03:46:20.750Z,34.17
2018-12-15T03:48:50.555Z,31.53
2018-12-15T03:51:20.312Z,31.90
2018-12-15T03:53:50.706Z,30.63
2018-12-15T03:56:20.806Z,31.43
2018-12-15T03:58:50.573Z,33.50
2018-12-15T04:01:20.349Z,32.93
2018-12-15T04:03:50.125Z,32.53
2018-12-15T04:06:19.946Z,30.67
2018-12-15T04:08:50.030Z,28.97
2018-12-15T04:11:20.022Z,31.23
2018-12-15T04:13:50.010Z,31.70
2018-12-15T04:16:19.750Z,34.07
2018-12-15T04:18:49.515Z,30.63
2018-12-15T04:21:19.321Z,31.87
2018-12-15T04:23:49.396Z,32.63
2018-12-15T04:26:19.236Z,35.03
2018-12-15T04:28:49.431Z,35.63
2018-12-15T04:31:19.212Z,35.30
2018-12-15T04:33:49.228Z,33.13
2018-12-15T04:36:20.688Z,32.63
2018-12-15T04:38:50.496Z,34.63
2018-12-15T04:41:20.268Z,31.47
2018-12-15T04:43:50.532Z,32.23
2018-12-15T04:46:20.350Z,33.00
2018-12-15T04:48:50.418Z,34.33
2018-12-15T04:51:20.194Z,33.93
2018-12-15T04:53:50.204Z,35.13
2018-12-15T04:56:19.972Z,35.67
2018-12-15T04:58:49.750Z,33.20
2018-12-15T05:01:19.474Z,33.93
2018-12-15T05:03:49.235Z,33.53
2018-12-15T05:06:19.030Z,34.77
2018-12-15T05:08:48.787Z,34.30
2018-12-15T05:12:20.735Z,32.83
2018-12-15T05:14:50.540Z,26.13
2018-12-15T05:17:20.365Z,33.47
2018-12-15T05:19:50.155Z,30.70
2018-12-15T05:22:20.489Z,28.07
2018-12-15T05:25:25.227Z,33.70
2018-12-15T05:27:55.030Z,34.10
2018-12-15T05:30:25.098Z,32.87
2018-12-15T05:32:55.134Z,34.03
2018-12-15T05:35:24.932Z,31.07
2018-12-15T05:41:30.959Z,31.40
2018-12-15T05:44:00.844Z,34.13
2018-12-15T05:46:31.033Z,33.33
2018-12-15T05:49:00.835Z,33.57
2018-12-15T05:51:30.875Z,32.17
2018-12-15T05:54:00.843Z,30.37
2018-12-15T05:56:30.631Z,32.23
2018-12-15T05:59:00.850Z,29.50
2018-12-15T06:01:30.694Z,30.20
2018-12-15T06:04:00.503Z,30.60
2018-12-15T06:06:30.961Z,30.70
2018-12-15T06:09:01.076Z,29.33
2018-12-15T06:11:31.227Z,28.00
2018-12-15T06:14:00.984Z,29.57
2018-12-15T06:16:30.851Z,28.20
2018-12-15T06:19:01.257Z,28.67
2018-12-15T06:21:31.048Z,29.40
2018-12-15T06:24:01.098Z,28.50
2018-12-15T06:26:30.884Z,27.80
2018-12-15T06:29:00.794Z,29.47
2018-12-15T06:31:30.564Z,31.17
2018-12-15T06:34:00.308Z,26.43
2018-12-15T06:36:30.100Z,28.43
2018-12-15T06:38:59.882Z,28.23
2018-12-15T06:41:29.648Z,28.37
2018-12-15T06:43:59.498Z,26.30
2018-12-15T06:46:29.764Z,27.87
2018-12-15T06:48:59.804Z,29.87
2018-12-15T06:51:29.724Z,28.50
2018-12-15T06:53:59.478Z,28.63
2018-12-15T06:56:29.276Z,27.53
2018-12-15T06:58:59.048Z,27.87
2018-12-15T07:01:28.815Z,30.13
2018-12-15T07:03:58.646Z,29.10
2018-12-15T07:06:28.747Z,27.00
2018-12-15T07:08:58.595Z,28.90
2018-12-15T07:11:28.761Z,27.40
2018-12-15T07:13:58.567Z,27.67
2018-12-15T07:16:28.954Z,28.53
2018-12-15T07:18:58.752Z,30.50
2018-12-15T07:21:28.561Z,27.60
2018-12-15T07:23:58.361Z,28.40
2018-12-15T07:26:28.155Z,28.80
2018-12-15T07:28:58.000Z,23.23
2018-12-15T07:31:27.803Z,27.37
2018-12-15T07:33:57.573Z,32.00
2018-12-15T07:36:27.363Z,30.00
2018-12-15T07:38:57.145Z,27.37
2018-12-15T07:41:27.015Z,30.70
2018-12-15T07:43:56.766Z,28.10
2018-12-15T07:46:26.516Z,30.10
2018-12-15T07:48:56.286Z,30.77
2018-12-15T07:51:26.075Z,28.00
2018-12-15T07:53:56.135Z,28.33
2018-12-15T07:56:28.130Z,32.97
2018-12-15T07:58:57.938Z,30.60
2018-12-15T08:01:28.068Z,29.07
2018-12-15T08:03:57.869Z,28.73
2018-12-15T08:06:28.068Z,31.00
2018-12-15T08:08:57.987Z,28.50
2018-12-15T08:11:33.109Z,27.33
2018-12-15T08:14:07.326Z,30.37
2018-12-15T08:16:37.294Z,30.60
2018-12-15T08:19:07.136Z,30.93
2018-12-15T08:21:37.626Z,30.07
2018-12-15T08:24:07.424Z,28.60
2018-12-15T08:26:37.696Z,27.43
2018-12-15T08:29:07.535Z,28.40
2018-12-15T08:31:37.468Z,30.73
2018-12-15T08:34:07.416Z,28.17
2018-12-15T08:36:37.232Z,28.77
2018-12-15T08:39:09.041Z,27.70
2018-12-15T08:41:38.871Z,28.57
2018-12-15T08:44:08.678Z,28.37
2018-12-15T08:46:38.524Z,31.47
2018-12-15T08:49:08.644Z,27.53
2018-12-15T08:51:39.402Z,31.63
2018-12-15T08:54:09.246Z,28.87
2018-12-15T08:56:39.869Z,29.47
2018-12-15T08:59:09.713Z,28.63
2018-12-15T09:01:39.537Z,25.97
2018-12-15T09:07:45.503Z,24.10
2018-12-15T09:10:15.282Z,28.27
2018-12-15T09:12:45.095Z,26.97
2018-12-15T09:15:14.939Z,30.83
2018-12-15T09:17:44.826Z,27.73
2018-12-15T09:20:15.046Z,28.30
2018-12-15T09:22:44.934Z,29.73
2018-12-15T09:25:15.209Z,28.87
2018-12-15T09:27:44.987Z,31.93
2018-12-15T09:30:14.793Z,28.90
2018-12-15T09:32:44.688Z,26.73
2018-12-15T09:35:14.582Z,27.43
2018-12-15T09:37:44.420Z,26.53
2018-12-15T09:40:14.349Z,28.27
2018-12-15T09:42:44.729Z,25.03
2018-12-15T09:45:15.183Z,23.10
2018-12-15T09:47:45.283Z,27.13
2018-12-15T09:50:15.547Z,28.47
2018-12-15T09:52:45.463Z,28.37
2018-12-15T09:55:15.475Z,30.33
2018-12-15T09:57:45.391Z,26.10
2018-12-15T10:00:15.709Z,28.00
2018-12-15T10:02:45.643Z,26.00
2018-12-15T10:05:15.903Z,28.57
2018-12-15T10:08:23.829Z,25.70
2018-12-15T10:10:53.658Z,27.53
2018-12-15T10:13:23.555Z,22.93
2018-12-15T10:15:53.363Z,25.53
2018-12-15T10:18:23.282Z,27.37
2018-12-15T10:20:53.541Z,22.50
2018-12-15T10:23:23.361Z,25.80
2018-12-15T10:25:53.173Z,24.97
2018-12-15T10:28:22.953Z,28.03
2018-12-15T10:31:59.022Z,22.83
2018-12-15T10:34:28.833Z,28.27
2018-12-15T10:36:58.660Z,28.80
2018-12-15T10:39:28.534Z,23.63
2018-12-15T10:41:58.518Z,28.10
2018-12-15T10:44:28.436Z,26.57
2018-12-15T10:46:59.017Z,28.17
2018-12-15T10:49:30.886Z,26.17
2018-12-15T10:52:00.751Z,23.07
2018-12-15T10:54:31.158Z,25.40
2018-12-15T10:57:00.986Z,26.57
2018-12-15T10:59:30.758Z,24.87
2018-12-15T11:02:00.592Z,27.03
2018-12-15T11:04:30.462Z,23.27
2018-12-15T11:07:00.433Z,24.60
2018-12-15T11:09:30.242Z,25.30
2018-12-15T11:12:00.082Z,24.33
2018-12-15T11:14:29.946Z,26.87
2018-12-15T11:16:59.932Z,27.03
2018-12-15T11:19:37.023Z,24.93
2018-12-15T11:22:03.048Z,23.17
2018-12-15T11:24:33.342Z,24.93
2018-12-15T11:27:04.075Z,25.10
2018-12-15T11:29:34.007Z,24.40
2018-12-15T11:35:40.311Z,26.13
2018-12-15T11:38:10.227Z,28.27
2018-12-15T11:40:40.109Z,27.20
2018-12-15T11:43:09.973Z,26.97
2018-12-15T11:45:39.905Z,26.53
2018-12-15T11:48:26.651Z,26.00
2018-12-15T11:50:56.849Z,25.17
2018-12-15T11:53:26.772Z,24.00
2018-12-15T11:55:56.738Z,26.90
2018-12-15T11:58:27.956Z,29.50
2018-12-15T12:04:34.471Z,25.23
2018-12-15T12:07:04.762Z,21.73
2018-12-15T12:09:34.693Z,25.37
2018-12-15T12:12:04.654Z,25.67
2018-12-15T12:14:34.511Z,25.90
2018-12-15T12:17:04.567Z,21.63
2018-12-15T12:19:34.530Z,26.13
2018-12-15T12:22:04.403Z,24.87
2018-12-15T12:24:34.269Z,22.43
2018-12-15T12:27:04.112Z,23.73
2018-12-15T12:29:33.957Z,25.87
2018-12-15T12:32:03.817Z,26.30
2018-12-15T12:34:33.638Z,24.40
2018-12-15T12:37:03.519Z,24.63
2018-12-15T12:39:33.486Z,23.83
2018-12-15T12:42:03.388Z,24.37
2018-12-15T12:44:33.523Z,24.47
2018-12-15T12:47:03.483Z,22.90
2018-12-15T12:49:33.387Z,23.67
2018-12-15T12:52:03.307Z,22.97
2018-12-15T12:54:33.275Z,25.30
2018-12-15T12:57:03.249Z,25.17
2018-12-15T12:59:33.184Z,24.93
2018-12-15T13:02:03.153Z,25.40
2018-12-15T13:04:32.996Z,24.33
2018-12-15T13:07:02.846Z,24.87
2018-12-15T13:09:32.781Z,25.70
2018-12-15T13:12:02.774Z,25.00
2018-12-15T13:14:32.575Z,26.43
2018-12-15T13:17:02.432Z,24.47
2018-12-15T13:19:32.360Z,23.83
2018-12-15T13:22:02.266Z,23.73
2018-12-15T13:24:32.849Z,24.50
2018-12-15T13:27:02.699Z,21.30
2018-12-15T13:29:32.535Z,24.17
2018-12-15T13:32:02.435Z,23.53
2018-12-15T13:34:32.644Z,28.80
2018-12-15T13:37:02.574Z,23.67
2018-12-15T13:39:32.496Z,25.13
2018-12-15T13:42:02.380Z,22.73
2018-12-15T13:44:32.284Z,22.53
2018-12-15T13:47:02.242Z,24.33
2018-12-15T13:49:32.166Z,24.70
2018-12-15T13:52:02.156Z,24.23
2018-12-15T13:58:07.930Z,24.57
2018-12-15T14:00:37.770Z,24.07
2018-12-15T14:03:07.662Z,26.33
2018-12-15T14:05:37.594Z,25.83
2018-12-15T14:08:07.558Z,23.50
2018-12-15T14:10:37.627Z,25.07
2018-12-15T14:13:07.596Z,27.33
2018-12-15T14:15:37.444Z,23.57
2018-12-15T14:18:07.340Z,26.50
2018-12-15T14:20:37.210Z,24.80
2018-12-15T14:23:07.329Z,24.20
2018-12-15T14:25:37.204Z,24.63
2018-12-15T14:28:07.149Z,25.17
2018-12-15T14:30:37.042Z,25.50
2018-12-15T14:33:07.042Z,24.30
2018-12-15T14:35:37.274Z,25.60
2018-12-15T14:38:07.229Z,26.63
2018-12-15T14:40:37.227Z,25.30
2018-12-15T14:43:07.104Z,22.20
2018-12-15T14:45:36.991Z,24.50
2018-12-15T14:48:06.958Z,24.07
2018-12-15T14:50:36.918Z,25.00
2018-12-15T14:53:06.784Z,23.87
2018-12-15T14:55:37.619Z,22.30
2018-12-15T14:58:08.232Z,21.37
2018-12-15T15:00:38.290Z,24.00
2018-12-15T15:03:08.234Z,24.50
2018-12-15T15:05:38.193Z,27.33
2018-12-15T15:08:08.203Z,25.83
2018-12-15T15:10:38.614Z,23.10
2018-12-15T15:13:08.698Z,27.00
2018-12-15T15:15:38.630Z,25.63
2018-12-15T15:18:08.596Z,25.93
2018-12-15T15:20:38.522Z,30.50
2018-12-15T15:23:09.100Z,27.87
2018-12-15T15:25:38.960Z,28.90
2018-12-15T15:28:08.772Z,26.33
2018-12-15T15:30:38.518Z,28.03
2018-12-15T15:33:08.419Z,28.33
2018-12-15T15:35:38.279Z,26.83
2018-12-15T15:38:08.750Z,25.23
2018-12-15T15:40:38.664Z,27.83
2018-12-15T15:43:08.572Z,26.77
2018-12-15T15:45:38.430Z,27.80
2018-12-15T15:48:08.309Z,27.40
2018-12-15T15:50:38.225Z,27.13
2018-12-15T15:53:08.057Z,27.77
2018-12-15T15:55:38.042Z,25.27
2018-12-15T15:58:07.912Z,26.27
2018-12-15T16:00:37.904Z,26.20
2018-12-15T16:03:07.785Z,27.93
2018-12-15T16:05:37.632Z,30.33
2018-12-15T16:08:07.554Z,27.40
2018-12-15T16:10:37.486Z,27.47
2018-12-15T16:13:07.476Z,28.60
2018-12-15T16:15:37.351Z,26.50
2018-12-15T16:18:07.503Z,27.83
2018-12-15T16:20:43.144Z,28.17
2018-12-15T16:23:10.129Z,29.83
2018-12-15T16:25:40.014Z,28.10
2018-12-15T16:28:09.906Z,27.77
2018-12-15T16:30:40.004Z,28.73
2018-12-15T16:33:09.791Z,28.83
2018-12-15T16:35:40.451Z,30.97
2018-12-15T16:38:10.335Z,31.10
2018-12-15T16:40:40.267Z,33.63
2018-12-15T16:43:10.838Z,31.70
2018-12-15T16:45:41.049Z,31.27
2018-12-15T16:48:10.877Z,31.93
2018-12-15T16:50:40.646Z,30.77
2018-12-15T16:53:12.261Z,31.60
2018-12-15T16:55:42.013Z,27.93
2018-12-15T16:58:11.824Z,31.00
2018-12-15T17:00:42.755Z,30.53
2018-12-15T17:03:12.955Z,30.63
2018-12-15T17:09:19.106Z,30.97
2018-12-15T17:11:48.897Z,30.60
2018-12-15T17:14:18.979Z,29.97
2018-12-15T17:16:48.829Z,30.60
2018-12-15T17:19:18.646Z,34.23
2018-12-15T17:21:48.485Z,29.57
2018-12-15T17:24:18.337Z,27.93
2018-12-15T17:26:48.119Z,31.23
2018-12-15T17:29:17.846Z,29.83
2018-12-15T17:31:47.927Z,29.63
2018-12-15T17:34:17.689Z,27.90
2018-12-15T17:36:47.820Z,28.73
2018-12-15T17:39:18.919Z,30.90
2018-12-15T17:41:48.736Z,33.67
2018-12-15T17:44:18.643Z,31.80
2018-12-15T17:46:48.389Z,33.50
2018-12-15T17:49:18.191Z,32.23
2018-12-15T17:51:48.284Z,35.90
2018-12-15T17:54:18.105Z,34.37
2018-12-15T17:56:47.891Z,36.27
2018-12-15T17:59:17.659Z,32.43
2018-12-15T18:01:47.463Z,32.07
2018-12-15T18:04:17.275Z,32.23
2018-12-15T18:06:47.803Z,32.90
2018-12-15T18:09:17.590Z,33.63
2018-12-15T18:11:48.433Z,32.70
2018-12-15T18:14:18.202Z,33.60
2018-12-15T18:16:48.041Z,32.00
2018-12-15T18:19:18.759Z,36.77
2018-12-15T18:21:48.555Z,36.67
2018-12-15T18:24:18.609Z,36.17
2018-12-15T18:26:48.394Z,39.50
2018-12-15T18:29:18.151Z,39.00
2018-12-15T18:31:48.687Z,41.00
2018-12-15T18:34:18.747Z,40.87
2018-12-15T18:36:48.760Z,34.67
2018-12-15T18:39:18.538Z,33.60
2018-12-15T18:41:48.370Z,39.50
2018-12-15T18:44:18.116Z,37.53
2018-12-15T18:46:48.559Z,37.43
2018-12-15T18:49:18.320Z,37.80
2018-12-15T18:51:48.088Z,39.80
2018-12-15T18:54:17.836Z,45.83
2018-12-15T18:56:48.792Z,37.77
2018-12-15T18:59:20.555Z,43.83
2018-12-15T19:01:50.402Z,40.27
2018-12-15T19:04:20.944Z,40.03
2018-12-15T19:06:51.136Z,41.30
2018-12-15T19:09:20.930Z,39.63
2018-12-15T19:11:50.656Z,41.90
2018-12-15T19:14:20.507Z,41.07
2018-12-15T19:16:50.248Z,39.07
2018-12-15T19:19:20.054Z,42.37
2018-12-15T19:21:49.862Z,41.80
2018-12-15T19:24:20.070Z,40.13
2018-12-15T19:26:49.880Z,34.13
2018-12-15T19:29:19.672Z,38.93
2018-12-15T19:31:49.594Z,37.47
2018-12-15T19:34:19.403Z,38.53
2018-12-15T19:36:49.775Z,43.83
2018-12-15T19:39:19.882Z,37.70
2018-12-15T19:41:50.001Z,38.00
2018-12-15T19:44:20.471Z,38.50
2018-12-15T19:46:50.326Z,38.70
2018-12-15T19:49:21.923Z,37.77
2018-12-15T19:51:51.711Z,44.70
2018-12-15T19:54:21.810Z,39.97
2018-12-15T19:56:51.892Z,37.73
2018-12-15T19:59:21.714Z,37.73
2018-12-15T20:01:51.510Z,37.40
2018-12-15T20:04:21.251Z,38.97
2018-12-15T20:06:51.776Z,36.27
2018-12-15T20:09:21.581Z,38.23
2018-12-15T20:11:51.380Z,41.30
2018-12-15T20:14:22.979Z,37.43
2018-12-15T20:16:52.830Z,35.93
2018-12-15T20:19:22.744Z,40.60
2018-12-15T20:21:52.617Z,40.17
2018-12-15T20:24:22.536Z,39.97
2018-12-15T20:26:52.633Z,38.27
2018-12-15T20:29:22.546Z,41.00
2018-12-15T20:31:52.442Z,38.97
2018-12-15T20:34:22.349Z,36.47
2018-12-15T20:36:52.304Z,38.40
2018-12-15T20:39:22.174Z,38.20
2018-12-15T20:41:52.117Z,37.37
2018-12-15T20:44:22.099Z,36.17
2018-12-15T20:46:51.997Z,33.83
2018-12-15T20:50:51.364Z,33.27
2018-12-15T20:53:21.261Z,34.27
2018-12-15T20:55:51.097Z,33.90
2018-12-15T20:58:20.941Z,35.97
2018-12-15T21:00:51.011Z,33.03
2018-12-15T21:03:20.993Z,31.10
2018-12-15T21:05:50.923Z,32.97
2018-12-15T21:08:20.803Z,33.57
2018-12-15T21:10:51.295Z,39.43
2018-12-15T21:13:21.556Z,42.93
2018-12-15T21:18:39.784Z,42.27
2018-12-15T21:21:09.814Z,31.30
2018-12-15T21:23:39.708Z,40.47
2018-12-15T21:26:09.695Z,35.73
2018-12-15T21:29:21.881Z,32.93
2018-12-15T21:31:56.726Z,34.20
2018-12-15T21:34:24.200Z,34.40
2018-12-15T21:36:54.500Z,32.97
2018-12-15T21:43:00.604Z,33.00
2018-12-15T21:45:30.467Z,33.53
2018-12-15T21:48:00.438Z,34.43
2018-12-15T21:50:30.403Z,33.13
2018-12-15T21:53:00.592Z,36.80
2018-12-15T21:55:30.520Z,33.20
2018-12-15T21:58:00.374Z,31.70
2018-12-15T22:00:30.251Z,31.77
2018-12-15T22:03:00.079Z,36.93
2018-12-15T22:05:30.010Z,33.57
2018-12-15T22:08:00.408Z,31.23
2018-12-15T22:10:30.232Z,31.33
2018-12-15T22:13:00.133Z,33.03
2018-12-15T22:15:30.031Z,33.70
2018-12-15T22:17:59.880Z,35.53
2018-12-15T22:20:30.392Z,35.27
2018-12-15T22:23:00.254Z,34.50
2018-12-15T22:25:30.133Z,36.20
2018-12-15T22:28:00.044Z,33.53
2018-12-15T22:30:30.178Z,35.97
2018-12-15T22:33:00.393Z,33.20
2018-12-15T22:35:30.298Z,33.90
2018-12-15T22:38:00.237Z,36.80
2018-12-15T22:40:30.550Z,35.30
2018-12-15T22:43:00.359Z,36.33
2018-12-15T22:45:30.962Z,37.07
2018-12-15T22:48:00.902Z,34.63
2018-12-15T22:50:30.759Z,36.40
2018-12-15T22:53:00.631Z,35.20
2018-12-15T22:55:30.980Z,33.07
2018-12-15T22:58:00.961Z,36.57
2018-12-15T23:00:35.257Z,36.13
2018-12-15T23:03:05.615Z,44.37
2018-12-15T23:05:35.631Z,35.33
2018-12-15T23:08:05.647Z,38.73
2018-12-15T23:10:36.305Z,37.53
2018-12-15T23:13:07.338Z,38.13
2018-12-15T23:15:37.532Z,39.83
2018-12-15T23:18:07.749Z,38.30
2018-12-15T23:20:37.661Z,34.40
2018-12-15T23:23:07.623Z,33.13
2018-12-15T23:25:37.513Z,36.13
2018-12-15T23:28:07.443Z,36.27
2018-12-15T23:30:37.346Z,38.63
2018-12-15T23:33:07.153Z,42.33
2018-12-15T23:35:37.068Z,35.97
2018-12-15T23:38:06.909Z,35.87
2018-12-15T23:40:36.941Z,35.83
2018-12-15T23:43:06.985Z,52.90
2018-12-15T23:45:36.855Z,32.53
2018-12-15T23:48:06.782Z,34.20
2018-12-15T23:50:36.707Z,37.03
2018-12-15T23:53:07.246Z,34.00
2018-12-15T23:55:37.080Z,34.23
2018-12-15T23:58:06.931Z,41.30
